• Join FlightAware (Why Join?)
  • Login
  • US Flag 
11:56AM EDT


 

Airport Tracker/Info


-or-


 

Live Flight TrackerFlight Track Log ✈ SWA508 ✈ 23-Apr-2013 ✈ KMCO - KPIT

Flight Track Log - Related Links

Times and Time Zones

All times are in EDT time to prevent confusion due to time zone crossing. See the SWA508 flight status page for this flight to view local times or setup timezone preferences in your user account.

Time Position Orientation Groundspeed Altitude Reporting Facility
EDT Latitude Longitude Course Direction KTS MPH feet Rate Location/Type
08:10AM 28.4333 -81.3000 30° Northeast 152 175 600  Level Orlando TRACON
08:11AM 28.4833 -81.2667 30° Northeast 199 229 4,200 2,640 Climbing Orlando TRACON
08:13AM 28.5922 -81.2400 12° North 269 310 8,000 2,820 Climbing Jacksonville Center
08:15AM 28.7533 -81.2869 346° North 284 327 14,300 2,880 Climbing Jacksonville Center
08:16AM 28.8436 -81.3164 344° North 313 360 16,800 3,240 Climbing Jacksonville Center
08:17AM 28.9378 -81.3433 346° North 332 382 20,800 3,180 Climbing Jacksonville Center
08:18AM 29.0342 -81.3703 346° North 354 407 23,200 2,760 Climbing Jacksonville Center
08:19AM 29.1389 -81.3947 348° North 372 428 26,400 2,880 Climbing Jacksonville Center
08:20AM 29.2475 -81.4028 356° North 392 451 29,000 2,400 Climbing Jacksonville Center
08:21AM 29.3561 -81.4178 353° North 397 457 31,300 2,400 Climbing Jacksonville Center
08:22AM 29.4564 -81.4281 355° North 404 465 33,900 1,800 Climbing Jacksonville Center
08:23AM 29.5714 -81.4383 356° North 404 465 35,000 540 Climbing Jacksonville Center
08:24AM 29.6842 -81.4486 355° North 409 471 35,000 660 Level Jacksonville Center
08:25AM 29.8117 -81.4586 356° North 409 471 36,400 1,740 Climbing Jacksonville Center
08:26AM 29.9286 -81.4714 355° North 414 476 38,500 2,100 Climbing Jacksonville Center
08:27AM 30.0394 -81.4817 355° North 409 471 40,700 1,200 Climbing Jacksonville Center
08:28AM 30.1522 -81.4919 355° North 402 463 41,000 120 Climbing Jacksonville Center
08:29AM 30.2672 -81.5025 355° North 407 468 41,000  Level Jacksonville Center
08:30AM 30.3822 -81.5056 359° North 407 468 41,000  Level Jacksonville Center
08:31AM 30.4969 -81.4992 North 407 468 41,000  Level Jacksonville Center
08:32AM 30.6136 -81.4903 North 407 468 41,000  Level Jacksonville Center
08:33AM 30.7306 -81.4786 North 412 474 41,000  Level Jacksonville Center
08:34AM 30.8453 -81.4697 North 412 474 41,000  Level Jacksonville Center
08:35AM 30.9642 -81.4608 North 418 481 41,000  Level Jacksonville Center
08:36AM 31.0811 -81.4492 North 418 481 41,000  Level Jacksonville Center
08:37AM 31.1997 -81.4306 North 424 488 41,000  Level Jacksonville Center
08:38AM 31.3167 -81.4164 North 429 494 41,000  Level Jacksonville Center
08:39AM 31.4353 -81.3975 North 422 486 41,000  Level Jacksonville Center
08:40AM 31.5417 -81.3836 North 427 491 41,000  Level Jacksonville Center
08:41AM 31.6750 -81.3669 North 427 491 41,000  Level Jacksonville Center
08:42AM 31.7981 -81.3478 North 427 491 41,000  Level Jacksonville Center
08:43AM 31.9086 -81.3311 North 440 506 41,000  Level Jacksonville Center
08:44AM 32.0336 -81.3144 North 445 512 41,000  Level Jacksonville Center
08:45AM 32.1544 -81.2975 North 445 512 41,000  Level Jacksonville Center
08:46AM 32.2775 -81.2831 North 445 512 41,000  Level Jacksonville Center
08:47AM 32.3983 -81.2614 North 445 512 41,000  Level Jacksonville Center
08:48AM 32.5192 -81.2492 North 439 505 41,000  Level Jacksonville Center
08:49AM 32.6525 -81.2297 North 439 505 41,000  Level Jacksonville Center
08:50AM 32.7589 -81.2153 North 439 505 41,000  Level Jacksonville Center
08:51AM 32.8794 -81.1958 North 439 505 41,000  Level Jacksonville Center
08:52AM 32.9983 -81.1811 North 439 505 41,000  Level Jacksonville Center
08:53AM 33.1275 -81.1636 North 428 493 41,000  Level Jacksonville Center
08:54AM 33.2461 -81.1467 North 423 487 41,000  Level Jacksonville Center
08:55AM 33.3650 -81.1292 North 423 487 41,000  Level Jacksonville Center
08:56AM 33.4817 -81.1119 North 423 487 41,000  Level Jacksonville Center
08:57AM 33.6003 -81.0947 North 428 493 41,000  Level Jacksonville Center
08:58AM 33.7189 -81.0772 North 428 493 41,000  Level Jacksonville Center
08:59AM 33.8375 -81.0547 North 428 493 41,000  Level Jacksonville Center
09:00AM 33.9586 -81.0447 North 428 493 41,000  Level Jacksonville Center
09:01AM 34.0772 -81.0322 North 427 491 41,000  Level Jacksonville Center
09:02AM 34.1961 -81.0222 North 427 491 41,000  Level Jacksonville Center
09:03AM 34.3683 -81.0039 North 411 473 41,000  Level Atlanta Center
09:04AM 34.4847 -80.9894 North 416 479 41,000  Level Atlanta Center
09:05AM 34.6036 -80.9828 North 421 484 41,000  Level Atlanta Center
09:06AM 34.7200 -80.9708 North 421 484 41,000  Level Atlanta Center
09:07AM 34.8492 -80.9536 North 423 487 41,000  Level Atlanta Center
09:08AM 34.9678 -80.9467 North 423 487 41,000  Level Atlanta Center
09:09AM 35.0842 -80.9294 North 423 487 41,000  Level Atlanta Center
09:10AM 35.2028 -80.9175 North 423 487 41,000  Level Atlanta Center
09:11AM 35.3214 -80.9028 North 423 487 41,000  Level Atlanta Center
09:12AM 35.4400 -80.8881 North 423 487 41,000  Level Atlanta Center
09:13AM 35.5608 -80.8783 North 429 494 41,000  Level Atlanta Center
09:14AM 35.6814 -80.8661 North 429 494 41,000  Level Atlanta Center
09:15AM 35.8019 -80.8511 North 434 499 41,000  Level Atlanta Center
09:16AM 35.9206 -80.8386 North 429 494 41,000  Level Atlanta Center
09:17AM 36.0411 -80.8261 North 429 494 41,000  Level Atlanta Center
09:18AM 36.1597 -80.8139 North 424 488 41,000  Level Atlanta Center
09:19AM 36.2783 -80.8014 North 424 488 41,000  Level Atlanta Center
09:20AM 36.4011 -80.7886 North 424 488 41,000  Level Atlanta Center
09:21AM 36.5194 -80.7736 North 424 488 41,000  Level Atlanta Center
09:22AM 36.6422 -80.7608 North 424 488 41,000  Level Atlanta Center
09:23AM 36.7586 -80.7481 North 424 488 41,000 -600 Level Atlanta Center
09:25AM 36.9469 -80.7325 North 449 517 39,400 -1,260 Descending Washington Center
09:26AM 37.0603 -80.7194 North 429 494 37,700 -2,400 Descending Washington Center
09:27AM 37.1700 -80.6903 12° North 409 471 34,600 -2,400 Descending Washington Center
09:28AM 37.2906 -80.6514 14° North 404 465 33,000 -840 Descending Washington Center
09:29AM 37.4006 -80.6142 15° North 404 465 33,000 -480 Level Washington Center
09:30AM 37.5125 -80.5797 14° North 404 465 32,100 -900 Descending Washington Center
09:31AM 37.6289 -80.5400 15° North 404 465 31,200 -960 Descending Washington Center
09:32AM 37.7431 -80.5028 14° North 410 472 30,200 -1,020 Descending Washington Center
09:33AM 37.8447 -80.4675 15° North 420 483 29,200 -600 Descending Washington Center
09:34AM 37.9567 -80.4325 14° North 420 483 29,000 -1,320 Descending Washington Center
09:35AM 38.0667 -80.3922 16° North 415 478 26,600 -2,460 Descending Washington Center
09:36AM 38.1744 -80.3594 13° North 409 471 24,100 -1,320 Descending Washington Center
09:37AM 38.2781 -80.3211 16° North 392 451 24,000 -60 Descending Washington Center
09:38AM 38.3922 -80.2833 15° North 382 440 24,000  Level Washington Center
09:39AM 38.4981 -80.2475 15° North 382 440 24,000 -900 Level Washington Center
09:40AM 38.6014 -80.2142 14° North 387 445 22,300 -1,500 Descending Washington Center
09:41AM 38.7008 -80.1781 16° North 382 440 21,000 -420 Descending Washington Center
09:44AM 38.9508 -80.0786 17° North 352 405 21,000  Level Cleveland Center
09:45AM 39.0403 -80.0139 29° Northeast 369 425 21,000  Level Cleveland Center
09:46AM 39.1336 -79.9489 28° Northeast 376 433 21,000  Level Cleveland Center
09:47AM 39.2250 -79.8892 27° Northeast 376 433 21,000  Level Cleveland Center
09:48AM 39.3183 -79.8264 27° Northeast 370 426 21,000  Level Cleveland Center
09:49AM 39.4206 -79.8092 North 363 418 21,000  Level Cleveland Center
09:50AM 39.5225 -79.8000 North 363 418 21,000  Level Cleveland Center
09:51AM 39.6267 -79.7853 North 363 418 21,000  Level Cleveland Center
09:52AM 39.7286 -79.7733 North 369 425 21,000 -1,200 Level Cleveland Center
09:53AM 39.8308 -79.7614 North 369 425 18,700 -2,460 Descending Cleveland Center
09:54AM 39.9308 -79.7492 North 364 419 16,100 -2,700 Descending Cleveland Center
09:55AM 40.0264 -79.7372 North 359 413 13,400 -2,580 Descending Cleveland Center
09:56AM 40.1142 -79.7633 347° North 322 371 11,000 -1,740 Descending Cleveland Center
09:57AM 40.1856 -79.8411 320° Northwest 317 365 10,000 -660 Descending Cleveland Center
09:57AM 40.2219 -79.8881 315° West 329 379 10,000 -120 Level FAA TRACON SMA TRACON (SMA)
09:57AM 40.2419 -79.9078 323° Northwest 298 343 9,900 -1,080 Descending FAA TRACON SMA TRACON (SMA)
09:58AM 40.2664 -79.9322 323° Northwest 282 325 9,300 -1,560 Descending FAA TRACON SMA TRACON (SMA)
09:58AM 40.2853 -79.9511 323° Northwest 282 325 8,900 -1,200 Descending FAA TRACON SMA TRACON (SMA)
09:58AM 40.3039 -79.9700 322° Northwest 278 320 8,500 -1,680 Descending FAA TRACON SMA TRACON (SMA)
09:59AM 40.3275 -79.9931 323° Northwest 275 316 7,800 -1,800 Descending FAA TRACON SMA TRACON (SMA)
09:59AM 40.3456 -80.0117 322° Northwest 271 312 7,300 -1,800 Descending FAA TRACON SMA TRACON (SMA)
09:59AM 40.3581 -80.0383 302° West 275 316 6,600 -2,040 Descending FAA TRACON SMA TRACON (SMA)
10:00AM 40.3667 -80.0736 288° West 271 312 6,000 -900 Descending FAA TRACON SMA TRACON (SMA)
10:00AM 40.3753 -80.1019 292° West 270 311 6,000  Level FAA TRACON SMA TRACON (SMA)
10:00AM 40.3836 -80.1300 291° West 269 310 6,000  Level FAA TRACON SMA TRACON (SMA)
10:01AM 40.3903 -80.1661 284° West 263 303 6,000 -180 Level FAA TRACON SMA TRACON (SMA)
10:01AM 40.3950 -80.1944 282° West 250 288 5,900 -180 Descending FAA TRACON SMA TRACON (SMA)
10:01AM 40.3994 -80.2208 282° West 232 267 5,900 -300 Level FAA TRACON SMA TRACON (SMA)
10:02AM 40.4044 -80.2525 282° West 220 253 5,700 -1,080 Descending FAA TRACON SMA TRACON (SMA)
10:02AM 40.4081 -80.2778 281° West 227 261 5,200 -1,440 Descending FAA TRACON SMA TRACON (SMA)
10:02AM 40.4119 -80.3028 282° West 225 259 4,800 -1,380 Descending FAA TRACON SMA TRACON (SMA)
10:03AM 40.4175 -80.3336 283° West 224 258 4,300 -1,200 Descending FAA TRACON SMA TRACON (SMA)
10:03AM 40.4222 -80.3556 286° West 224 258 4,000 -1,080 Descending FAA TRACON SMA TRACON (SMA)
10:03AM 40.4361 -80.3753 313° West 224 258 3,600 -1,200 Descending FAA TRACON SMA TRACON (SMA)
10:04AM 40.4547 -80.3786 352° North 225 259 3,200 -1,080 Descending FAA TRACON SMA TRACON (SMA)
10:04AM 40.4789 -80.3761 North 217 250 2,900 -600 Descending FAA TRACON SMA TRACON (SMA)
10:05AM 40.4997 -80.3714 10° North 180 207 2,800 -720 Descending FAA TRACON SMA TRACON (SMA)
10:05AM 40.5069 -80.3550 60° Northeast 179 206 2,400 -1,020 Descending FAA TRACON SMA TRACON (SMA)
10:05AM 40.5053 -80.3378 97° East 155 178 2,200 -660 Descending FAA TRACON SMA TRACON (SMA)
10:05AM 40.5033 -80.3222 99° East 141 162 2,000 -780 Descending FAA TRACON SMA TRACON (SMA)
10:06AM 40.5031 -80.3075 91° East 132 152 1,700 -780 Descending FAA TRACON SMA TRACON (SMA)
10:06AM 40.5025 -80.2900 92° East 123 142 1,500 -600 Descending FAA TRACON SMA TRACON (SMA)
10:06AM 40.5022 -80.2761 92° East 124 143 1,300 -480 Descending FAA TRACON SMA TRACON (SMA)
10:07AM 40.5022 -80.2728 90° East 117 135 1,200 -360 Descending FAA TRACON SMA TRACON (SMA)